Time;durP1;ratioP1;P1;durP2;ratioP2;P2;SDS_P1;SDS_P2;PMS_P1;PMS_P2;Temp;Humidity;BMP_temperature;BMP_pressure;BME280_temperature;BME280_humidity;BME280_pressure;Samples;Min_cycle;Max_cycle;Signal;HPM_P1;HPM_P2
2024/01/09 00:00:55;;;;;;;;;;;;;;;1.96;33.33;101237.06;5496077;32;34799;-75
2024/01/09 00:03:57;;;;;;;;;;;;;;;1.62;33.03;101228.97;5478351;32;34473;-74
2024/01/09 00:06:59;;;;;;;;;;;;;;;1.11;34.01;101240.44;5491247;32;35363;-74
2024/01/09 00:10:02;;;;;;;;;;;;;;;1.73;33.42;101242.00;5496261;32;35123;-73
2024/01/09 00:13:04;;;;;;;;;;;;;;;1.17;33.49;101243.09;5471107;32;34643;-74
2024/01/09 00:16:06;;;;;;;;;;;;;;;1.39;33.26;101244.22;5468447;32;34794;-74
2024/01/09 00:19:08;;;;;;;;;;;;;;;1.69;33.02;101246.31;5494799;31;34816;-76
2024/01/09 00:22:11;;;;;;;;;;;;;;;2.26;32.32;101246.87;5480037;32;34410;-74
2024/01/09 00:25:16;;;;;;;;;;;;;;;2.06;32.27;101252.75;5480268;32;35644;-74
2024/01/09 00:28:18;;;;;;;;;;;;;;;1.82;32.29;101253.34;5495386;32;35052;-74
2024/01/09 00:31:20;;;;;;;;;;;;;;;2.16;32.03;101256.28;5486058;32;34787;-75
2024/01/09 00:34:22;;;;;;;;;;;;;;;2.38;32.19;101266.00;5474756;32;36827;-73
2024/01/09 00:37:25;;;;;;;;;;;;;;;2.01;32.78;101269.97;5497272;32;34315;-76
2024/01/09 00:40:27;;;;;;;;;;;;;;;2.15;32.87;101268.38;5466742;32;34912;-75
2024/01/09 00:43:37;;;;;;;;;;;;;;;2.50;31.93;101280.78;5468974;32;34694;-75
2024/01/09 00:46:39;;;;;;;;;;;;;;;1.94;32.74;101285.47;5471636;32;35474;-74
2024/01/09 00:49:44;;;;;;;;;;;;;;;1.97;32.84;101286.34;5490872;32;35642;-75
2024/01/09 00:52:47;;;;;;;;;;;;;;;1.23;33.79;101296.69;5500511;32;34804;-75
2024/01/09 00:55:49;;;;;;;;;;;;;;;1.79;33.02;101294.78;5475611;32;35059;-76
2024/01/09 00:58:51;;;;;;;;;;;;;;;1.62;33.03;101299.78;5495638;32;34981;-76
2024/01/09 01:01:53;;;;;;;;;;;;;;;2.51;31.58;101292.00;5476769;32;34896;-74
2024/01/09 01:04:55;;;;;;;;;;;;;;;2.07;32.16;101308.06;5479116;32;34511;-74
2024/01/09 01:07:57;;;;;;;;;;;;;;;2.46;31.82;101310.16;5494678;32;34631;-75
2024/01/09 01:11:00;;;;;;;;;;;;;;;2.15;31.55;101309.88;5495031;32;34836;-76
2024/01/09 01:14:02;;;;;;;;;;;;;;;1.31;32.94;101324.44;5481025;32;35291;-75
2024/01/09 01:17:05;;;;;;;;;;;;;;;1.79;32.30;101320.69;5479898;32;35553;-76
2024/01/09 01:20:07;;;;;;;;;;;;;;;1.32;32.24;101331.34;5486214;32;34435;-76
2024/01/09 01:23:09;;;;;;;;;;;;;;;1.81;32.14;101329.38;5489852;32;34164;-74
2024/01/09 01:26:11;;;;;;;;;;;;;;;1.90;31.53;101332.06;5494233;32;34316;-75
2024/01/09 01:29:14;;;;;;;;;;;;;;;1.57;32.20;101322.19;5464317;32;34473;-75
2024/01/09 01:32:16;;;;;;;;;;;;;;;1.29;31.98;101335.63;5488071;32;34677;-73
2024/01/09 01:35:18;;;;;;;;;;;;;;;2.00;31.46;101325.28;5490679;32;34315;-74
2024/01/09 01:38:21;;;;;;;;;;;;;;;2.29;31.15;101330.75;5492837;32;35376;-77
2024/01/09 01:41:23;;;;;;;;;;;;;;;1.74;31.20;101339.63;5498670;32;34729;-74
2024/01/09 01:44:26;;;;;;;;;;;;;;;2.05;31.22;101341.72;5498090;32;34446;-76
2024/01/09 01:47:38;;;;;;;;;;;;;;;1.95;30.28;101344.22;5482420;32;35064;-77
2024/01/09 01:50:41;;;;;;;;;;;;;;;1.30;31.35;101350.31;5484605;32;35562;-74
2024/01/09 01:53:44;;;;;;;;;;;;;;;2.02;30.12;101344.31;5470315;32;35218;-73
2024/01/09 01:56:48;;;;;;;;;;;;;;;1.20;30.60;101351.03;5500759;32;35786;-74
2024/01/09 01:59:50;;;;;;;;;;;;;;;1.41;30.49;101361.66;5478976;32;35348;-74
2024/01/09 02:02:53;;;;;;;;;;;;;;;1.82;29.90;101356.19;5481349;32;33909;-75
2024/01/09 02:06:13;;;;;;;;;;;;;;;1.56;30.50;101353.25;5480233;32;35716;-76
2024/01/09 02:09:26;;;;;;;;;;;;;;;1.38;30.50;101361.66;5479429;32;34637;-75
2024/01/09 02:12:29;;;;;;;;;;;;;;;1.66;30.21;101354.22;5469518;32;35349;-76
2024/01/09 02:15:31;;;;;;;;;;;;;;;1.22;30.92;101359.66;5488989;31;35395;-75
2024/01/09 02:18:33;;;;;;;;;;;;;;;1.35;30.44;101357.31;5485638;32;35431;-77
2024/01/09 02:21:35;;;;;;;;;;;;;;;1.49;29.87;101361.81;5473222;32;34167;-76
2024/01/09 02:24:37;;;;;;;;;;;;;;;1.07;30.43;101366.38;5480524;32;33255;-76
2024/01/09 02:27:42;;;;;;;;;;;;;;;1.59;30.26;101363.66;5495384;32;34995;-73
2024/01/09 02:30:45;;;;;;;;;;;;;;;1.44;29.73;101372.09;5487162;32;34506;-74
2024/01/09 02:33:47;;;;;;;;;;;;;;;2.02;29.25;101375.44;5492385;32;34941;-75
2024/01/09 02:36:49;;;;;;;;;;;;;;;1.75;29.38;101360.41;5471002;32;34744;-74
2024/01/09 02:39:51;;;;;;;;;;;;;;;1.74;29.16;101369.06;5481271;32;35149;-73
2024/01/09 02:42:54;;;;;;;;;;;;;;;1.02;30.23;101360.25;5494430;32;35538;-73
2024/01/09 02:45:56;;;;;;;;;;;;;;;1.79;29.28;101371.69;5487228;32;35455;-76
2024/01/09 02:48:58;;;;;;;;;;;;;;;1.20;29.83;101371.75;5497339;32;35102;-74
2024/01/09 02:52:00;;;;;;;;;;;;;;;1.21;30.29;101371.75;5473774;32;34337;-74
2024/01/09 02:55:03;;;;;;;;;;;;;;;1.24;30.10;101370.94;5491493;32;35009;-75
2024/01/09 02:58:05;;;;;;;;;;;;;;;1.68;29.32;101375.87;5479216;32;34537;-75
2024/01/09 03:01:07;;;;;;;;;;;;;;;1.83;29.61;101376.06;5482866;32;33970;-73
2024/01/09 03:04:10;;;;;;;;;;;;;;;1.36;30.15;101376.31;5480165;32;34862;-74
2024/01/09 03:07:12;;;;;;;;;;;;;;;1.62;30.01;101380.13;5474398;32;34268;-74
2024/01/09 03:10:14;;;;;;;;;;;;;;;1.52;29.66;101386.00;5497948;32;36554;-74
2024/01/09 03:13:16;;;;;;;;;;;;;;;1.63;29.80;101387.03;5465303;32;35351;-75
2024/01/09 03:16:19;;;;;;;;;;;;;;;1.84;29.47;101385.56;5485943;32;34574;-77
2024/01/09 03:19:21;;;;;;;;;;;;;;;0.88;29.92;101384.19;5467281;32;35046;-75
2024/01/09 03:22:23;;;;;;;;;;;;;;;1.44;29.69;101387.62;5477755;32;34799;-75
2024/01/09 03:25:26;;;;;;;;;;;;;;;1.17;30.34;101390.69;5478913;32;33466;-73
2024/01/09 03:28:28;;;;;;;;;;;;;;;0.98;30.46;101399.91;5467040;32;34642;-75
2024/01/09 03:31:31;;;;;;;;;;;;;;;2.13;29.14;101393.72;5495055;32;35345;-74
2024/01/09 03:34:34;;;;;;;;;;;;;;;1.25;29.85;101394.28;5468142;32;34223;-73
2024/01/09 03:37:37;;;;;;;;;;;;;;;1.16;30.46;101401.91;5468331;32;35054;-74
2024/01/09 03:40:39;;;;;;;;;;;;;;;1.47;30.38;101404.94;5469137;32;35685;-76
2024/01/09 03:43:41;;;;;;;;;;;;;;;1.67;30.03;101411.25;5495372;32;35339;-73
2024/01/09 03:46:43;;;;;;;;;;;;;;;1.99;29.61;101410.81;5468987;32;34457;-75
2024/01/09 03:49:45;;;;;;;;;;;;;;;1.76;29.44;101403.63;5477178;32;34530;-74
2024/01/09 03:52:47;;;;;;;;;;;;;;;1.55;29.63;101419.75;5492012;32;34568;-74
2024/01/09 03:55:49;;;;;;;;;;;;;;;1.45;29.54;101423.06;5493663;32;34814;-74
2024/01/09 03:58:52;;;;;;;;;;;;;;;1.44;29.26;101425.62;5483473;31;35851;-74
2024/01/09 04:01:54;;;;;;;;;;;;;;;1.48;29.38;101428.28;5461987;32;34450;-74
2024/01/09 04:04:56;;;;;;;;;;;;;;;1.53;28.92;101431.81;5475458;32;35365;-75
2024/01/09 04:07:59;;;;;;;;;;;;;;;1.42;29.10;101432.50;5468342;32;34308;-76
2024/01/09 04:11:04;;;;;;;;;;;;;;;1.95;28.87;101443.63;5494044;32;35270;-74
2024/01/09 04:14:07;;;;;;;;;;;;;;;1.05;30.10;101443.16;5467906;32;34365;-75
2024/01/09 04:17:09;;;;;;;;;;;;;;;0.86;30.56;101442.81;5490362;32;34644;-75
2024/01/09 04:20:14;;;;;;;;;;;;;;;1.17;29.91;101457.16;5485621;32;35151;-75
2024/01/09 04:23:16;;;;;;;;;;;;;;;1.31;30.05;101459.12;5464760;32;36723;-75
2024/01/09 04:26:19;;;;;;;;;;;;;;;1.65;29.07;101458.75;5472203;32;34842;-73
2024/01/09 04:29:21;;;;;;;;;;;;;;;1.52;29.52;101461.16;5499227;32;35213;-75
2024/01/09 04:32:23;;;;;;;;;;;;;;;1.99;28.73;101468.72;5479589;32;34808;-76
2024/01/09 04:35:25;;;;;;;;;;;;;;;1.24;29.58;101472.81;5494339;32;34682;-75
2024/01/09 04:38:27;;;;;;;;;;;;;;;0.55;30.38;101486.25;5485965;32;35632;-76
2024/01/09 04:41:30;;;;;;;;;;;;;;;0.87;30.30;101479.09;5483015;32;34341;-76
2024/01/09 04:44:32;;;;;;;;;;;;;;;1.04;30.10;101487.16;5480292;32;34887;-75
2024/01/09 04:47:42;;;;;;;;;;;;;;;1.07;30.05;101482.88;5491180;32;34262;-75
2024/01/09 04:50:44;;;;;;;;;;;;;;;1.06;29.75;101485.47;5496414;32;33974;-75
2024/01/09 04:53:47;;;;;;;;;;;;;;;0.96;30.01;101489.59;5494753;32;36110;-74
2024/01/09 04:56:49;;;;;;;;;;;;;;;1.06;29.97;101482.88;5483182;32;33573;-76
2024/01/09 04:59:51;;;;;;;;;;;;;;;1.34;29.75;101491.94;5472241;32;34575;-75
2024/01/09 05:03:14;;;;;;;;;;;;;;;1.25;29.72;101484.91;5479668;32;34588;-76
2024/01/09 05:07:03;;;;;;;;;;;;;;;0.98;29.92;101493.09;5445608;32;36059;-74
2024/01/09 05:10:34;;;;;;;;;;;;;;;1.23;30.10;101488.34;5452930;32;34639;-75
2024/01/09 05:13:42;;;;;;;;;;;;;;;1.50;29.92;101487.91;5417337;32;37505;-74
2024/01/09 05:16:44;;;;;;;;;;;;;;;1.97;29.15;101504.13;5409332;32;34350;-76
2024/01/09 05:19:47;;;;;;;;;;;;;;;0.87;29.73;101519.62;5418768;32;34178;-75
2024/01/09 05:22:52;;;;;;;;;;;;;;;1.79;29.27;101519.44;5411455;32;34272;-74
2024/01/09 05:25:54;;;;;;;;;;;;;;;2.13;28.77;101516.47;5406899;32;34441;-75
2024/01/09 05:28:57;;;;;;;;;;;;;;;1.66;29.17;101527.88;5422876;32;34955;-73
2024/01/09 05:31:59;;;;;;;;;;;;;;;1.06;30.14;101538.09;5395588;32;34390;-76
2024/01/09 05:35:02;;;;;;;;;;;;;;;2.31;29.04;101530.50;5406441;32;35785;-75
2024/01/09 05:38:04;;;;;;;;;;;;;;;1.26;30.22;101540.19;5423280;32;34297;-73
2024/01/09 05:41:22;;;;;;;;;;;;;;;1.59;29.67;101548.50;5408221;32;33667;-75
2024/01/09 05:44:25;;;;;;;;;;;;;;;1.47;30.04;101543.13;5422062;32;34496;-75
2024/01/09 05:47:28;;;;;;;;;;;;;;;1.96;29.49;101550.78;5418268;32;35335;-77
2024/01/09 05:50:30;;;;;;;;;;;;;;;1.63;29.54;101555.50;5409403;32;35227;-75
2024/01/09 05:53:32;;;;;;;;;;;;;;;2.00;29.27;101558.66;5407005;32;33998;-75
2024/01/09 05:56:35;;;;;;;;;;;;;;;1.31;29.68;101559.25;5405855;32;35165;-74
2024/01/09 05:59:37;;;;;;;;;;;;;;;1.58;29.32;101564.91;5421190;32;34638;-75
2024/01/09 06:02:39;;;;;;;;;;;;;;;1.58;29.86;101567.50;5434572;32;34919;-75
2024/01/09 06:05:41;;;;;;;;;;;;;;;1.89;29.49;101565.37;5441566;32;34508;-75
2024/01/09 06:08:44;;;;;;;;;;;;;;;1.46;29.32;101575.06;5425231;32;34554;-74
2024/01/09 06:11:47;;;;;;;;;;;;;;;1.57;29.11;101589.06;5498091;32;35083;-74
2024/01/09 06:14:49;;;;;;;;;;;;;;;0.81;30.13;101595.44;5465819;32;36814;-76
2024/01/09 06:17:53;;;;;;;;;;;;;;;0.86;30.14;101595.53;5493193;32;35005;-76
2024/01/09 06:20:56;;;;;;;;;;;;;;;1.58;29.43;101598.59;5466931;32;35203;-75
2024/01/09 06:23:58;;;;;;;;;;;;;;;1.90;29.01;101606.03;5494557;32;35078;-74
2024/01/09 06:27:00;;;;;;;;;;;;;;;1.58;29.45;101608.09;5460618;32;34796;-75
2024/01/09 06:30:03;;;;;;;;;;;;;;;2.02;28.86;101610.53;5462542;32;35165;-75
2024/01/09 06:33:05;;;;;;;;;;;;;;;2.21;29.14;101609.94;5479025;32;34359;-75
2024/01/09 06:36:09;;;;;;;;;;;;;;;2.06;28.91;101622.66;5493409;32;34791;-75
2024/01/09 06:39:12;;;;;;;;;;;;;;;2.43;28.57;101624.09;5474914;32;36622;-74
2024/01/09 06:42:14;;;;;;;;;;;;;;;1.81;29.18;101629.22;5493703;32;34678;-74
2024/01/09 06:45:17;;;;;;;;;;;;;;;1.21;29.25;101632.44;5480809;32;35238;-73
2024/01/09 06:48:19;;;;;;;;;;;;;;;1.22;29.78;101641.97;5480358;32;34739;-72
2024/01/09 06:51:22;;;;;;;;;;;;;;;1.92;28.93;101640.63;5477887;32;34923;-76
2024/01/09 06:54:24;;;;;;;;;;;;;;;1.96;28.57;101642.41;5463154;32;34972;-81
2024/01/09 06:57:26;;;;;;;;;;;;;;;1.70;29.29;101656.66;5464835;31;33656;-72
2024/01/09 07:00:29;;;;;;;;;;;;;;;2.03;28.64;101654.63;5472055;32;34241;-75
2024/01/09 07:03:35;;;;;;;;;;;;;;;1.34;29.34;101663.78;5479863;32;35151;-72
2024/01/09 07:06:38;;;;;;;;;;;;;;;1.45;29.88;101665.72;5456344;32;35777;-74
2024/01/09 07:09:41;;;;;;;;;;;;;;;2.04;29.15;101666.75;5489740;32;35415;-72
2024/01/09 07:12:43;;;;;;;;;;;;;;;2.44;28.83;101669.94;5485080;32;35549;-75
2024/01/09 07:15:45;;;;;;;;;;;;;;;1.85;28.98;101683.72;5454763;32;33127;-82
2024/01/09 07:18:47;;;;;;;;;;;;;;;2.40;29.12;101678.56;5463259;31;35426;-83
2024/01/09 07:21:50;;;;;;;;;;;;;;;2.30;28.68;101692.22;5479716;32;35699;-86
2024/01/09 07:24:52;;;;;;;;;;;;;;;2.67;28.12;101691.91;5472388;32;34130;-77
2024/01/09 07:27:54;;;;;;;;;;;;;;;1.21;29.31;101711.00;5485135;32;34423;-86
2024/01/09 07:30:58;;;;;;;;;;;;;;;1.82;28.85;101711.31;5489161;32;34084;-79
2024/01/09 07:34:03;;;;;;;;;;;;;;;0.94;29.42;101707.87;5472573;32;34549;-82
2024/01/09 07:37:08;;;;;;;;;;;;;;;0.74;29.89;101717.78;5478571;32;34408;-74
2024/01/09 07:40:11;;;;;;;;;;;;;;;1.08;29.45;101728.00;5472194;32;34165;-80
2024/01/09 07:43:15;;;;;;;;;;;;;;;1.73;28.70;101730.16;5489878;32;34008;-78
2024/01/09 07:46:17;;;;;;;;;;;;;;;0.89;29.01;101719.81;5473026;32;34384;-73
2024/01/09 07:49:26;;;;;;;;;;;;;;;1.54;28.79;101734.13;5477773;31;34307;-82
2024/01/09 07:52:28;;;;;;;;;;;;;;;1.60;28.62;101734.22;5484006;31;34264;-69
2024/01/09 07:55:31;;;;;;;;;;;;;;;1.88;28.16;101740.81;5467612;32;34268;-72
2024/01/09 07:58:34;;;;;;;;;;;;;;;1.76;28.23;101734.53;5457879;31;33319;-65
2024/01/09 08:01:36;;;;;;;;;;;;;;;1.88;27.88;101740.81;5469377;32;34472;-69
2024/01/09 08:04:39;;;;;;;;;;;;;;;0.97;29.30;101739.00;5486302;32;35712;-79
2024/01/09 08:07:42;;;;;;;;;;;;;;;1.65;29.10;101751.59;5492004;32;36110;-84
2024/01/09 08:10:44;;;;;;;;;;;;;;;2.95;27.68;101739.91;5484208;32;34519;-73
2024/01/09 08:13:47;;;;;;;;;;;;;;;2.56;28.35;101741.94;5474756;32;35462;-71
2024/01/09 08:16:50;;;;;;;;;;;;;;;2.57;28.36;101744.53;5492290;32;34229;-72
2024/01/09 08:19:52;;;;;;;;;;;;;;;2.37;29.04;101764.12;5478523;32;35363;-70
2024/01/09 08:22:54;;;;;;;;;;;;;;;3.33;27.20;101759.44;5483359;32;36548;-72
2024/01/09 08:25:56;;;;;;;;;;;;;;;3.22;27.64;101761.91;5490953;32;35314;-74
2024/01/09 08:29:02;;;;;;;;;;;;;;;4.02;26.53;101759.34;5495137;32;34340;-71
2024/01/09 08:32:05;;;;;;;;;;;;;;;2.94;27.82;101771.91;5475357;32;34444;-70
2024/01/09 08:35:13;;;;;;;;;;;;;;;2.58;28.03;101771.41;5493080;31;35944;-73
2024/01/09 08:38:17;;;;;;;;;;;;;;;2.35;28.43;101778.78;5490965;32;34667;-65
2024/01/09 08:41:20;;;;;;;;;;;;;;;2.24;28.53;101785.50;5495216;32;36157;-66
2024/01/09 08:44:25;;;;;;;;;;;;;;;3.34;27.63;101788.03;5494568;32;35866;-71
2024/01/09 08:47:33;;;;;;;;;;;;;;;3.29;27.73;101794.06;5466145;32;35328;-69
2024/01/09 08:50:35;;;;;;;;;;;;;;;3.48;27.18;101788.25;5493029;32;34536;-69
2024/01/09 08:53:38;;;;;;;;;;;;;;;3.16;28.44;101801.69;5493062;32;35776;-72
2024/01/09 08:56:45;;;;;;;;;;;;;;;3.57;27.61;101801.34;5488308;32;33361;-71
2024/01/09 08:59:47;;;;;;;;;;;;;;;3.72;26.81;101796.31;5490421;32;37313;-73
2024/01/09 09:02:51;;;;;;;;;;;;;;;3.16;27.33;101790.41;5490329;32;34148;-77
2024/01/09 09:05:54;;;;;;;;;;;;;;;3.56;27.11;101810.00;5489820;31;33184;-76
2024/01/09 09:09:00;;;;;;;;;;;;;;;4.24;26.51;101809.84;5488549;32;35806;-82
2024/01/09 09:12:07;;;;;;;;;;;;;;;2.77;28.21;101814.97;5483783;32;34945;-86
2024/01/09 09:15:12;;;;;;;;;;;;;;;4.65;26.28;101816.31;5480323;32;35152;-84
2024/01/09 09:18:19;;;;;;;;;;;;;;;4.16;26.26;101811.53;5486171;32;34261;-79
2024/01/09 09:21:24;;;;;;;;;;;;;;;3.96;27.67;101815.66;5493372;32;34290;-78
2024/01/09 09:24:26;;;;;;;;;;;;;;;3.92;26.83;101819.06;5477780;32;34321;-74
2024/01/09 09:27:29;;;;;;;;;;;;;;;4.54;25.60;101819.69;5473742;32;34440;-74
2024/01/09 09:30:32;;;;;;;;;;;;;;;2.65;27.48;101820.84;5475310;32;35446;-70
2024/01/09 09:33:34;;;;;;;;;;;;;;;3.28;27.34;101815.66;5475003;32;34267;-72
2024/01/09 09:36:37;;;;;;;;;;;;;;;4.15;26.55;101819.31;5476970;32;34286;-70
2024/01/09 09:39:39;;;;;;;;;;;;;;;4.30;26.58;101811.66;5488934;32;37609;-73
2024/01/09 09:42:42;;;;;;;;;;;;;;;4.72;25.63;101818.09;5488201;32;34251;-74
2024/01/09 09:45:44;;;;;;;;;;;;;;;5.01;25.09;101807.88;5466239;32;35922;-73
2024/01/09 09:48:47;;;;;;;;;;;;;;;4.53;25.07;101817.06;5476275;32;36746;-75
2024/01/09 09:51:50;;;;;;;;;;;;;;;4.10;25.72;101808.84;5466033;32;35643;-78
2024/01/09 09:54:53;;;;;;;;;;;;;;;2.04;28.07;101821.47;5473019;32;33009;-67
2024/01/09 09:57:57;;;;;;;;;;;;;;;2.18;28.02;101822.59;5493120;32;35486;-71
2024/01/09 10:00:59;;;;;;;;;;;;;;;3.30;27.16;101816.59;5483592;32;33916;-71
2024/01/09 10:04:10;;;;;;;;;;;;;;;3.17;26.85;101812.94;5485574;32;36038;-71
2024/01/09 10:07:16;;;;;;;;;;;;;;;3.38;26.83;101817.56;5488563;32;33825;-70
2024/01/09 10:10:20;;;;;;;;;;;;;;;3.66;26.84;101817.03;5464258;32;33254;-76
2024/01/09 10:13:27;;;;;;;;;;;;;;;3.18;25.84;101819.87;5483664;32;35632;-74
2024/01/09 10:16:55;;;;;;;;;;;;;;;2.54;25.70;101827.56;5463131;32;34004;-70
2024/01/09 10:19:57;;;;;;;;;;;;;;;2.99;25.63;101822.22;5452378;32;859611;-69
2024/01/09 10:22:59;;;;;;;;;;;;;;;3.46;25.12;101823.72;5472529;32;34343;-75
2024/01/09 10:26:04;;;;;;;;;;;;;;;3.82;24.96;101812.03;5457746;32;32842;-77
2024/01/09 10:29:12;;;;;;;;;;;;;;;3.58;25.47;101818.69;5468528;32;33414;-80
2024/01/09 10:32:26;;;;;;;;;;;;;;;4.27;24.71;101822.91;5482770;32;37043;-70
2024/01/09 10:35:43;;;;;;;;;;;;;;;2.85;26.24;101831.53;5478589;32;34217;-71
2024/01/09 10:38:46;;;;;;;;;;;;;;;4.22;24.95;101826.31;5469375;32;34812;-76
2024/01/09 10:41:48;;;;;;;;;;;;;;;3.87;24.84;101831.16;5477565;32;34852;-74
2024/01/09 10:44:50;;;;;;;;;;;;;;;4.60;24.17;101826.69;5484734;32;34658;-72
2024/01/09 10:47:56;;;;;;;;;;;;;;;5.63;23.21;101821.25;5482206;31;35021;-71
2024/01/09 10:50:58;;;;;;;;;;;;;;;5.26;23.55;101822.78;5462584;32;35085;-72
2024/01/09 10:54:02;;;;;;;;;;;;;;;3.80;24.61;101827.63;5475129;32;34112;-74
2024/01/09 10:57:07;;;;;;;;;;;;;;;3.90;25.48;101834.66;5477276;32;37481;-76
2024/01/09 11:00:11;;;;;;;;;;;;;;;3.85;25.18;101835.47;5465197;32;34794;-75
2024/01/09 11:03:15;;;;;;;;;;;;;;;3.86;24.90;101837.19;5482532;32;34285;-73
2024/01/09 11:06:21;;;;;;;;;;;;;;;3.28;26.27;101839.06;5492978;32;35478;-80
2024/01/09 11:09:25;;;;;;;;;;;;;;;4.42;25.29;101837.78;5477310;32;35545;-81
2024/01/09 11:12:30;;;;;;;;;;;;;;;3.73;25.90;101838.78;5481944;32;37529;-79
2024/01/09 11:15:36;;;;;;;;;;;;;;;3.80;25.88;101846.69;5492533;32;36501;-71
2024/01/09 11:18:38;;;;;;;;;;;;;;;5.00;24.39;101837.41;5493623;32;34217;-78
2024/01/09 11:21:43;;;;;;;;;;;;;;;6.28;23.24;101832.75;5475405;32;35408;-86
2024/01/09 11:24:46;;;;;;;;;;;;;;;7.32;22.17;101819.63;5480693;32;34598;-78
2024/01/09 11:27:53;;;;;;;;;;;;;;;7.44;21.60;101816.09;5488484;32;34561;-74
2024/01/09 11:30:56;;;;;;;;;;;;;;;7.88;21.45;101819.41;5474539;32;32397;-76
2024/01/09 11:34:01;;;;;;;;;;;;;;;6.86;22.25;101822.31;5470503;32;37773;-72
2024/01/09 11:37:11;;;;;;;;;;;;;;;8.40;20.90;101819.09;5478515;32;35884;-72
2024/01/09 11:40:14;;;;;;;;;;;;;;;7.38;21.36;101814.38;5480405;32;35042;-75
2024/01/09 11:43:17;;;;;;;;;;;;;;;8.04;21.26;101812.31;5491015;32;35460;-76
2024/01/09 11:46:19;;;;;;;;;;;;;;;8.99;21.16;101808.97;5479255;32;34833;-72
2024/01/09 11:49:25;;;;;;;;;;;;;;;10.09;19.87;101801.50;5481651;32;35271;-74
2024/01/09 11:52:30;;;;;;;;;;;;;;;9.91;20.05;101806.13;5476465;32;33496;-71
2024/01/09 11:55:32;;;;;;;;;;;;;;;9.81;19.95;101807.16;5499861;32;34592;-79
2024/01/09 11:58:36;;;;;;;;;;;;;;;8.17;21.03;101823.59;5478882;31;33985;-71
2024/01/09 12:01:41;;;;;;;;;;;;;;;6.51;23.11;101819.75;5497455;32;34918;-73
2024/01/09 12:04:44;;;;;;;;;;;;;;;7.17;22.63;101820.53;5480974;32;35099;-82
2024/01/09 12:07:46;;;;;;;;;;;;;;;7.80;21.77;101815.97;5495230;31;34327;-78
2024/01/09 12:10:49;;;;;;;;;;;;;;;6.35;22.46;101825.81;5481936;32;34400;-70
2024/01/09 12:13:58;;;;;;;;;;;;;;;5.62;24.06;101827.31;5490118;32;34663;-74
2024/01/09 12:17:00;;;;;;;;;;;;;;;6.73;23.54;101813.63;5479177;32;34488;-77
2024/01/09 12:20:05;;;;;;;;;;;;;;;6.33;23.65;101830.16;5491750;32;34686;-83
2024/01/09 12:23:13;;;;;;;;;;;;;;;6.71;23.18;101812.75;5471153;31;34572;-70
2024/01/09 12:26:15;;;;;;;;;;;;;;;6.70;23.26;101812.78;5482459;32;34576;-71
2024/01/09 12:29:17;;;;;;;;;;;;;;;6.00;24.50;101834.44;5482467;32;34459;-72
2024/01/09 12:32:23;;;;;;;;;;;;;;;6.63;23.48;101824.94;5492258;32;37150;-83
2024/01/09 12:35:25;;;;;;;;;;;;;;;7.03;22.71;101828.41;5473084;32;35465;-73
2024/01/09 12:38:27;;;;;;;;;;;;;;;8.99;21.56;101816.84;5478879;32;33994;-74
2024/01/09 12:41:32;;;;;;;;;;;;;;;10.36;19.86;101816.03;5484992;32;36360;-78
2024/01/09 12:44:36;;;;;;;;;;;;;;;10.62;19.08;101820.84;5458850;32;34738;-71
2024/01/09 12:47:41;;;;;;;;;;;;;;;12.19;17.66;101808.12;5486312;32;34859;-70
2024/01/09 12:51:16;;;;;;;;;;;;;;;10.33;19.13;101826.59;5477415;31;35851;-79
2024/01/09 12:54:21;;;;;;;;;;;;;;;9.92;19.74;101830.66;5470701;32;35783;-70
2024/01/09 12:57:26;;;;;;;;;;;;;;;9.07;20.20;101830.75;5471429;32;36224;-72
2024/01/09 13:00:29;;;;;;;;;;;;;;;10.60;19.23;101826.16;5472546;32;34287;-71
2024/01/09 13:03:34;;;;;;;;;;;;;;;9.72;19.54;101831.78;5490412;32;34501;-78
2024/01/09 13:06:39;;;;;;;;;;;;;;;12.67;17.56;101822.78;5477608;32;35537;-70
2024/01/09 13:09:45;;;;;;;;;;;;;;;10.63;18.34;101841.91;5493460;32;35598;-72
2024/01/09 13:12:51;;;;;;;;;;;;;;;9.04;19.91;101843.91;5487302;32;35481;-72
2024/01/09 13:15:56;;;;;;;;;;;;;;;8.75;19.84;101856.38;5491438;32;34917;-74
2024/01/09 13:18:59;;;;;;;;;;;;;;;7.60;20.83;101854.44;5483761;32;34481;-76
2024/01/09 13:22:01;;;;;;;;;;;;;;;6.00;22.19;101868.38;5476437;32;35432;-69
2024/01/09 13:25:10;;;;;;;;;;;;;;;5.74;22.90;101868.25;5476883;32;33959;-73
2024/01/09 13:28:15;;;;;;;;;;;;;;;5.81;22.70;101875.22;5468066;32;34232;-71
2024/01/09 13:31:18;;;;;;;;;;;;;;;5.53;23.24;101871.59;5467668;32;34793;-69
2024/01/09 13:34:20;;;;;;;;;;;;;;;5.15;23.34;101873.97;5468708;32;34139;-70
2024/01/09 13:37:23;;;;;;;;;;;;;;;5.84;23.10;101870.00;5484520;32;34673;-76
2024/01/09 13:40:29;;;;;;;;;;;;;;;5.16;23.86;101873.13;5493261;32;32945;-75
2024/01/09 13:43:32;;;;;;;;;;;;;;;5.24;22.82;101875.78;5487837;32;35692;-77
2024/01/09 13:46:36;;;;;;;;;;;;;;;4.74;23.96;101873.66;5493154;32;34303;-73
2024/01/09 13:49:38;;;;;;;;;;;;;;;5.72;22.60;101878.66;5472304;32;34307;-71
2024/01/09 13:53:00;;;;;;;;;;;;;;;4.51;23.22;101886.50;5488546;32;35582;-75
2024/01/09 13:56:03;;;;;;;;;;;;;;;5.36;23.02;101883.69;5490817;32;36440;-84
2024/01/09 13:59:05;;;;;;;;;;;;;;;4.66;23.75;101899.66;5490678;32;35493;-71
2024/01/09 14:02:11;;;;;;;;;;;;;;;4.35;23.99;101893.25;5480754;32;34447;-79
2024/01/09 14:05:15;;;;;;;;;;;;;;;7.33;21.16;101876.28;5488551;32;33517;-70
2024/01/09 14:08:21;;;;;;;;;;;;;;;8.39;19.78;101874.13;5493592;32;34162;-75
2024/01/09 14:11:24;;;;;;;;;;;;;;;9.15;19.04;101876.16;5490854;32;34375;-75
2024/01/09 14:14:29;;;;;;;;;;;;;;;10.60;17.89;101873.47;5476138;32;36528;-74
2024/01/09 14:17:32;;;;;;;;;;;;;;;11.82;17.05;101867.78;5476223;32;35007;-77
2024/01/09 14:20:38;;;;;;;;;;;;;;;12.48;16.35;101873.34;5484871;32;34115;-86
2024/01/09 14:23:44;;;;;;;;;;;;;;;10.90;16.84;101881.78;5490177;32;35804;-72
2024/01/09 14:26:49;;;;;;;;;;;;;;;9.33;19.10;101896.06;5455505;32;33840;-77
2024/01/09 14:29:52;;;;;;;;;;;;;;;9.13;19.15;101892.75;5489525;32;34239;-73
2024/01/09 14:32:55;;;;;;;;;;;;;;;9.62;18.55;101898.41;5488798;32;34742;-75
2024/01/09 14:35:59;;;;;;;;;;;;;;;8.73;19.61;101900.09;5490020;32;35414;-71
2024/01/09 14:39:06;;;;;;;;;;;;;;;7.87;20.46;101901.44;5490721;32;33215;-72
2024/01/09 14:42:10;;;;;;;;;;;;;;;7.60;21.15;101906.75;5478029;31;32801;-73
2024/01/09 14:45:14;;;;;;;;;;;;;;;6.85;22.22;101921.66;5470893;32;34209;-90
2024/01/09 14:48:18;;;;;;;;;;;;;;;6.16;22.93;101916.28;5484385;31;35577;-70
2024/01/09 14:51:22;;;;;;;;;;;;;;;6.63;22.39;101918.13;5478876;32;33721;-73
2024/01/09 14:54:28;;;;;;;;;;;;;;;6.50;22.68;101927.66;5474912;31;36264;-72
2024/01/09 14:57:33;;;;;;;;;;;;;;;5.86;23.21;101933.53;5475086;32;34965;-74
2024/01/09 15:00:36;;;;;;;;;;;;;;;5.71;23.41;101928.22;5483512;31;34394;-83
2024/01/09 15:03:42;;;;;;;;;;;;;;;5.52;23.68;101940.28;5486083;31;34111;-73
2024/01/09 15:06:44;;;;;;;;;;;;;;;4.26;25.22;101945.25;5458595;31;35489;-83
2024/01/09 15:09:51;;;;;;;;;;;;;;;4.69;24.49;101941.34;5468346;32;36044;-83
2024/01/09 15:12:54;;;;;;;;;;;;;;;3.88;25.46;101943.03;5478148;31;34212;-82
2024/01/09 15:15:56;;;;;;;;;;;;;;;3.81;25.03;101959.41;5471816;32;35423;-84
2024/01/09 15:18:59;;;;;;;;;;;;;;;4.51;25.01;101956.81;5460006;32;34232;-84
2024/01/09 15:22:01;;;;;;;;;;;;;;;4.29;25.17;101966.06;5461566;32;34296;-85
2024/01/09 15:25:03;;;;;;;;;;;;;;;3.69;25.65;101961.84;5470359;32;34508;-73
2024/01/09 15:28:06;;;;;;;;;;;;;;;3.18;26.78;101970.59;5470266;32;36877;-72
2024/01/09 15:31:08;;;;;;;;;;;;;;;3.34;26.57;101963.88;5488152;32;35646;-72
2024/01/09 15:34:10;;;;;;;;;;;;;;;4.23;25.58;101966.00;5458512;32;35492;-84
2024/01/09 15:37:12;;;;;;;;;;;;;;;3.25;26.99;101975.03;5496646;32;33357;-73
2024/01/09 15:40:14;;;;;;;;;;;;;;;3.09;27.15;101984.31;5477871;32;35269;-80
2024/01/09 15:43:17;;;;;;;;;;;;;;;3.31;27.45;101982.91;5492924;32;34995;-73
2024/01/09 15:46:23;;;;;;;;;;;;;;;4.30;26.15;101986.91;5462052;32;34577;-72
2024/01/09 15:49:25;;;;;;;;;;;;;;;3.83;26.42;101985.44;5476365;32;34761;-83
2024/01/09 15:52:29;;;;;;;;;;;;;;;3.65;26.25;101986.03;5492807;32;34918;-82
2024/01/09 15:55:31;;;;;;;;;;;;;;;4.32;25.71;101982.63;5494599;32;35240;-83